Time;durP1;ratioP1;P1;durP2;ratioP2;P2;SDS_P1;SDS_P2;PMS_P1;PMS_P2;Temp;Humidity;BMP_temperature;BMP_pressure;BME280_temperature;BME280_humidity;BME280_pressure;Samples;Min_cycle;Max_cycle;Signal;HPM_P1;HPM_P2
2022/12/02 00:01:10;;;;;;;7.53;6.77;;;19.00;42.00;;;;;;4975110;28;20567;-63
2022/12/02 00:03:37;;;;;;;8.27;7.47;;;19.00;42.10;;;;;;4981728;28;20610;-64
2022/12/02 00:06:02;;;;;;;7.20;6.60;;;19.00;42.10;;;;;;4984898;28;21770;-63
2022/12/02 00:08:31;;;;;;;6.87;6.30;;;19.10;42.20;;;;;;4996261;28;21151;-63
2022/12/02 00:11:00;;;;;;;6.77;6.27;;;19.00;42.10;;;;;;4991875;28;20233;-62
2022/12/02 00:13:40;;;;;;;6.93;6.33;;;19.00;42.10;;;;;;4972660;28;20436;-63
2022/12/02 00:16:18;;;;;;;7.53;6.90;;;19.00;42.10;;;;;;4979364;28;20469;-63
2022/12/02 00:18:43;;;;;;;6.63;6.03;;;19.10;42.20;;;;;;4997725;28;20615;-63
2022/12/02 00:21:09;;;;;;;7.10;6.50;;;19.00;42.10;;;;;;4982519;28;20444;-63
2022/12/02 00:23:34;;;;;;;7.20;6.53;;;19.00;42.10;;;;;;4987417;28;20667;-63
2022/12/02 00:26:00;;;;;;;6.80;6.23;;;19.00;42.00;;;;;;4988181;28;20250;-63
2022/12/02 00:28:25;;;;;;;7.17;6.57;;;19.00;42.10;;;;;;4974900;28;20362;-63
2022/12/02 00:30:51;;;;;;;6.73;6.23;;;19.00;42.10;;;;;;4992416;28;20223;-63
2022/12/02 00:33:17;;;;;;;6.77;6.20;;;19.00;42.40;;;;;;4997737;28;20268;-63
2022/12/02 00:35:43;;;;;;;8.00;7.27;;;19.00;42.10;;;;;;4996129;28;20215;-63
2022/12/02 00:38:09;;;;;;;6.90;6.30;;;19.00;42.10;;;;;;4999345;28;20968;-63
2022/12/02 00:40:34;;;;;;;7.20;6.60;;;19.00;42.10;;;;;;4994301;28;20570;-63
2022/12/02 00:48:29;;;;;;;7.57;6.87;;;19.00;42.10;;;;;;4971066;28;20538;-63
2022/12/02 00:50:54;;;;;;;6.37;5.80;;;19.00;42.10;;;;;;4985959;28;20427;-63
2022/12/02 00:53:21;;;;;;;6.40;5.90;;;19.00;42.10;;;;;;4994496;28;20242;-63
2022/12/02 00:55:46;;;;;;;6.70;6.10;;;19.00;42.10;;;;;;4993719;28;20223;-63
2022/12/02 00:58:12;;;;;;;6.90;6.40;;;19.00;42.10;;;;;;4992007;28;20428;-63
2022/12/02 01:00:37;;;;;;;6.83;6.23;;;19.00;42.10;;;;;;4977696;28;21166;-65
2022/12/02 01:03:03;;;;;;;7.40;6.70;;;19.00;42.00;;;;;;4981134;28;20226;-63
2022/12/02 01:05:28;;;;;;;7.10;6.57;;;19.00;42.10;;;;;;4992046;28;20254;-63
2022/12/02 01:07:54;;;;;;;6.83;6.27;;;19.00;42.00;;;;;;4979325;28;20574;-63
2022/12/02 01:10:19;;;;;;;7.20;6.57;;;19.00;42.00;;;;;;4979987;28;20718;-64
2022/12/02 01:12:47;;;;;;;6.70;6.10;;;19.00;42.10;;;;;;4994814;28;20675;-63
2022/12/02 01:15:13;;;;;;;6.20;5.70;;;19.00;42.00;;;;;;4996353;28;20615;-63
2022/12/02 01:17:38;;;;;;;6.67;6.10;;;19.00;42.00;;;;;;4993100;28;20733;-63
2022/12/02 01:20:05;;;;;;;7.83;7.13;;;19.00;42.00;;;;;;4975915;28;20215;-63
2022/12/02 01:22:30;;;;;;;6.10;5.60;;;19.00;42.00;;;;;;4981504;28;20904;-63
2022/12/02 01:24:55;;;;;;;8.00;7.20;;;19.00;42.00;;;;;;4992275;28;20424;-63
2022/12/02 01:27:21;;;;;;;6.43;5.87;;;19.00;42.10;;;;;;4980303;28;20223;-63
2022/12/02 01:29:47;;;;;;;6.57;6.00;;;19.00;42.00;;;;;;4975871;28;20224;-64
2022/12/02 01:32:13;;;;;;;7.40;6.80;;;19.00;42.00;;;;;;4985818;28;20211;-62
2022/12/02 01:34:38;;;;;;;6.10;5.60;;;19.00;42.00;;;;;;4978231;28;20219;-64
2022/12/02 01:37:04;;;;;;;8.20;7.50;;;19.00;42.00;;;;;;4980089;28;20339;-63
2022/12/02 01:39:29;;;;;;;6.83;6.23;;;19.00;42.10;;;;;;4978042;28;20571;-63
2022/12/02 01:41:55;;;;;;;7.20;6.60;;;19.00;42.00;;;;;;4989548;28;20227;-63
2022/12/02 01:44:21;;;;;;;6.60;6.07;;;19.00;42.10;;;;;;4989432;28;20668;-63
2022/12/02 01:46:46;;;;;;;7.07;6.47;;;19.00;42.00;;;;;;4990871;28;20277;-63
2022/12/02 01:49:12;;;;;;;7.13;6.53;;;19.00;42.00;;;;;;4980549;28;20226;-63
2022/12/02 01:51:38;;;;;;;6.93;6.40;;;19.00;42.00;;;;;;4977939;28;20255;-64
2022/12/02 01:54:03;;;;;;;7.67;7.00;;;19.00;42.10;;;;;;4976540;28;20235;-64
2022/12/02 01:56:29;;;;;;;6.27;5.77;;;19.00;42.00;;;;;;4984506;28;20218;-63
2022/12/02 01:58:54;;;;;;;7.40;6.63;;;19.00;42.00;;;;;;4996964;28;20234;-63
2022/12/02 02:01:22;;;;;;;7.53;6.77;;;19.00;42.00;;;;;;5000305;28;20239;-65
2022/12/02 02:03:47;;;;;;;7.20;6.50;;;19.00;42.00;;;;;;4996267;28;20229;-63
2022/12/02 02:06:13;;;;;;;6.53;5.80;;;19.00;42.10;;;;;;4996670;28;20464;-64
2022/12/02 02:08:38;;;;;;;7.20;6.60;;;19.00;42.00;;;;;;4997704;28;20317;-63
2022/12/02 02:11:04;;;;;;;7.43;6.70;;;19.00;42.00;;;;;;4999610;28;20239;-63
2022/12/02 02:13:30;;;;;;;8.27;7.47;;;19.00;42.00;;;;;;5000024;28;20227;-63
2022/12/02 02:15:55;;;;;;;7.10;6.60;;;19.00;42.00;;;;;;4996041;28;20215;-63
2022/12/02 02:18:21;;;;;;;7.10;6.50;;;19.00;42.00;;;;;;4981273;28;20284;-63
2022/12/02 02:20:47;;;;;;;7.20;6.60;;;19.00;42.00;;;;;;4982195;28;20267;-63
2022/12/02 02:23:23;;;;;;;6.57;6.03;;;19.00;42.00;;;;;;4988556;28;20224;-63
2022/12/02 02:25:52;;;;;;;7.77;7.13;;;19.00;42.00;;;;;;4985391;28;20880;-63
2022/12/02 02:28:18;;;;;;;6.80;6.20;;;19.00;42.00;;;;;;4995131;28;20432;-63
2022/12/02 02:30:44;;;;;;;6.40;5.90;;;19.00;42.00;;;;;;4999347;28;20427;-63
2022/12/02 02:33:12;;;;;;;6.57;6.07;;;19.00;42.00;;;;;;4995474;28;20515;-64
2022/12/02 02:35:41;;;;;;;6.97;5.77;;;19.00;42.00;;;;;;4996410;28;20327;-63
2022/12/02 02:38:09;;;;;;;6.90;6.40;;;19.00;42.00;;;;;;4996057;28;20819;-63
2022/12/02 02:40:35;;;;;;;7.00;6.40;;;19.00;42.00;;;;;;4998212;28;20436;-63
2022/12/02 02:43:02;;;;;;;7.93;7.13;;;19.00;42.00;;;;;;5001338;28;22820;-63
2022/12/02 02:45:32;;;;;;;8.43;7.07;;;19.00;42.00;;;;;;4997377;28;20410;-63
2022/12/02 02:47:58;;;;;;;7.90;7.20;;;19.00;42.00;;;;;;4987409;28;20895;-63
2022/12/02 02:50:25;;;;;;;6.93;6.40;;;19.00;42.00;;;;;;4989114;28;20585;-63
2022/12/02 02:52:51;;;;;;;7.13;6.53;;;19.00;42.00;;;;;;4993353;28;20447;-63
2022/12/02 02:55:22;;;;;;;8.47;6.57;;;19.00;42.00;;;;;;4981606;28;20779;-63
2022/12/02 02:57:48;;;;;;;7.43;6.70;;;19.00;42.00;;;;;;4983842;28;20223;-63
2022/12/02 03:00:16;;;;;;;7.33;6.60;;;19.00;42.00;;;;;;4979510;28;20455;-63
2022/12/02 03:02:45;;;;;;;7.10;6.50;;;19.00;41.90;;;;;;4987088;28;20803;-64
2022/12/02 03:05:11;;;;;;;6.80;6.30;;;19.00;42.00;;;;;;4994505;28;20493;-63
2022/12/02 03:07:37;;;;;;;7.43;6.73;;;19.00;41.90;;;;;;4997561;28;20949;-62
2022/12/02 03:10:04;;;;;;;7.50;6.83;;;19.00;41.90;;;;;;4994761;28;20485;-63
2022/12/02 03:12:30;;;;;;;7.03;6.43;;;19.00;41.90;;;;;;4994723;28;20271;-63
2022/12/02 03:14:56;;;;;;;8.10;7.40;;;19.00;41.90;;;;;;4999326;28;20427;-63
2022/12/02 03:17:22;;;;;;;6.70;6.10;;;19.00;42.00;;;;;;4998174;28;20227;-63
2022/12/02 03:19:48;;;;;;;6.93;6.40;;;19.00;41.90;;;;;;4999436;28;20444;-63
2022/12/02 03:22:14;;;;;;;7.90;7.10;;;19.00;41.90;;;;;;4998567;28;20250;-63
2022/12/02 03:24:40;;;;;;;6.87;6.17;;;19.00;41.90;;;;;;4984622;28;20287;-63
2022/12/02 03:27:08;;;;;;;7.07;6.47;;;19.00;41.90;;;;;;4999301;28;20297;-62
2022/12/02 03:29:35;;;;;;;7.50;6.80;;;19.00;41.90;;;;;;4988132;28;20497;-63
2022/12/02 03:32:01;;;;;;;7.43;6.73;;;19.00;42.00;;;;;;4998956;28;23087;-63
2022/12/02 03:34:28;;;;;;;7.40;6.70;;;19.00;41.90;;;;;;4995189;28;20436;-63
2022/12/02 03:36:54;;;;;;;7.73;7.07;;;19.00;41.90;;;;;;4998537;28;20459;-63
2022/12/02 03:39:20;;;;;;;7.70;7.00;;;19.00;41.90;;;;;;4997542;28;20523;-63
2022/12/02 03:41:46;;;;;;;6.87;6.23;;;19.00;41.90;;;;;;4983067;28;20465;-63
2022/12/02 03:44:13;;;;;;;7.87;6.87;;;19.00;41.90;;;;;;4980774;28;20251;-62
2022/12/02 03:46:39;;;;;;;7.00;6.40;;;19.00;41.90;;;;;;4981341;28;20437;-62
2022/12/02 03:49:04;;;;;;;6.70;6.03;;;19.00;42.00;;;;;;4979662;28;20437;-63
2022/12/02 03:51:31;;;;;;;7.20;6.57;;;19.00;41.90;;;;;;4986121;28;20216;-63
2022/12/02 03:53:58;;;;;;;7.50;6.70;;;19.00;41.90;;;;;;4975816;28;20221;-62
2022/12/02 03:56:24;;;;;;;7.50;6.87;;;19.00;41.90;;;;;;4981410;28;20435;-63
2022/12/02 03:58:51;;;;;;;6.43;5.83;;;19.00;41.90;;;;;;4980703;28;20447;-63
2022/12/02 04:01:18;;;;;;;6.13;5.73;;;19.00;41.90;;;;;;4975654;28;20236;-63
2022/12/02 04:03:44;;;;;;;6.73;6.17;;;19.00;41.90;;;;;;4989562;28;20439;-63
2022/12/02 04:06:10;;;;;;;6.60;6.07;;;19.00;41.90;;;;;;4992935;28;20438;-63
2022/12/02 04:08:37;;;;;;;6.60;6.10;;;19.00;41.90;;;;;;4978126;28;20216;-62
2022/12/02 04:11:03;;;;;;;7.50;6.80;;;19.00;41.90;;;;;;4980442;28;20557;-63
2022/12/02 04:13:29;;;;;;;7.70;7.00;;;19.00;41.90;;;;;;4983798;28;20471;-63
2022/12/02 04:15:55;;;;;;;6.57;5.97;;;19.00;41.90;;;;;;4979518;28;20531;-63
2022/12/02 04:18:20;;;;;;;7.73;7.03;;;19.00;41.90;;;;;;4979064;28;20615;-63
2022/12/02 04:20:46;;;;;;;7.30;6.70;;;19.00;41.90;;;;;;4976781;28;21215;-64
2022/12/02 04:23:12;;;;;;;6.53;5.90;;;19.00;41.90;;;;;;4980293;28;20664;-63
2022/12/02 04:25:37;;;;;;;6.87;6.27;;;19.00;41.90;;;;;;4981891;28;20463;-63
2022/12/02 04:28:03;;;;;;;6.60;6.10;;;19.00;41.90;;;;;;4982557;28;20214;-63
2022/12/02 04:30:29;;;;;;;6.90;6.20;;;18.90;41.80;;;;;;4978883;28;20238;-63
2022/12/02 04:32:54;;;;;;;7.40;6.70;;;18.90;41.70;;;;;;4976516;28;20236;-63
2022/12/02 04:35:20;;;;;;;7.13;6.53;;;19.00;41.90;;;;;;4978311;28;20220;-63
2022/12/02 04:37:45;;;;;;;6.80;6.30;;;18.90;41.80;;;;;;4979464;28;20311;-63
2022/12/02 04:40:12;;;;;;;6.97;6.40;;;18.90;41.80;;;;;;4985607;28;20246;-63
2022/12/02 04:42:37;;;;;;;6.97;6.43;;;18.90;41.80;;;;;;4982766;28;20224;-63
2022/12/02 04:45:04;;;;;;;6.60;6.10;;;18.90;41.80;;;;;;4987337;28;20468;-63
2022/12/02 04:47:30;;;;;;;7.00;6.40;;;18.90;41.70;;;;;;4975100;28;20232;-63
2022/12/02 04:49:56;;;;;;;7.43;6.50;;;19.00;41.90;;;;;;4974311;28;20435;-63
2022/12/02 04:52:21;;;;;;;6.90;6.23;;;19.00;41.90;;;;;;4986520;28;20458;-63
2022/12/02 04:54:47;;;;;;;7.20;6.53;;;19.00;41.90;;;;;;5000099;28;20290;-62
2022/12/02 04:57:12;;;;;;;6.63;6.13;;;19.00;41.80;;;;;;4992905;28;20231;-63
2022/12/02 04:59:38;;;;;;;6.27;5.73;;;19.00;41.80;;;;;;4992967;28;20227;-63
2022/12/02 05:02:03;;;;;;;7.80;6.47;;;19.00;41.80;;;;;;4991011;28;20278;-63
2022/12/02 05:04:29;;;;;;;6.87;6.27;;;19.00;41.80;;;;;;4988395;28;20229;-63
2022/12/02 05:06:54;;;;;;;6.30;5.80;;;19.00;41.80;;;;;;4973999;28;20223;-63
2022/12/02 05:09:20;;;;;;;8.33;7.47;;;19.00;41.70;;;;;;4979638;28;20722;-63
2022/12/02 05:11:45;;;;;;;5.90;5.40;;;19.00;41.70;;;;;;4980042;28;20307;-63
2022/12/02 05:14:11;;;;;;;6.87;6.20;;;19.00;41.70;;;;;;4981383;28;20234;-63
2022/12/02 05:16:37;;;;;;;7.27;6.57;;;19.00;41.70;;;;;;4984250;28;20287;-63
2022/12/02 05:19:02;;;;;;;7.07;6.00;;;19.00;41.60;;;;;;4978647;28;20247;-63
2022/12/02 05:21:28;;;;;;;6.97;6.37;;;19.00;41.60;;;;;;4976781;28;21028;-63
2022/12/02 05:23:53;;;;;;;7.00;6.40;;;19.10;41.60;;;;;;4975432;28;20231;-63
2022/12/02 05:26:19;;;;;;;6.50;6.00;;;19.10;41.70;;;;;;4976515;28;20224;-63
2022/12/02 05:28:45;;;;;;;7.27;6.67;;;19.10;41.60;;;;;;4973085;28;20707;-64
2022/12/02 05:31:10;;;;;;;7.43;6.73;;;19.10;41.60;;;;;;4977893;28;20236;-63
2022/12/02 05:33:35;;;;;;;6.53;6.03;;;19.10;41.60;;;;;;4984169;28;20596;-65
2022/12/02 05:36:01;;;;;;;7.80;7.10;;;19.10;41.60;;;;;;4993345;28;20683;-64
2022/12/02 05:38:26;;;;;;;6.60;6.00;;;19.10;41.50;;;;;;4996463;28;20230;-64
2022/12/02 05:40:55;;;;;;;7.33;6.73;;;19.10;41.50;;;;;;4991164;28;20231;-62
2022/12/02 05:43:25;;;;;;;6.50;5.90;;;19.10;41.50;;;;;;4993766;28;20231;-64
2022/12/02 05:45:55;;;;;;;7.13;6.43;;;19.10;41.50;;;;;;4986388;28;20443;-64
2022/12/02 05:48:20;;;;;;;6.87;6.27;;;19.10;41.50;;;;;;4977881;28;20949;-64
2022/12/02 05:50:46;;;;;;;6.17;5.57;;;19.10;41.50;;;;;;4983572;28;20476;-65
2022/12/02 05:53:22;;;;;;;6.00;5.50;;;19.10;41.50;;;;;;4990666;28;20219;-65
2022/12/02 05:55:49;;;;;;;5.53;5.13;;;19.10;41.50;;;;;;4989534;28;20435;-64
2022/12/02 05:58:16;;;;;;;6.73;6.13;;;19.10;41.50;;;;;;4993989;28;20434;-64
2022/12/02 06:00:42;;;;;;;6.67;6.17;;;19.10;41.50;;;;;;4992501;28;20450;-65
2022/12/02 06:03:16;;;;;;;6.50;5.93;;;19.10;41.50;;;;;;4967227;28;20437;-64
2022/12/02 06:05:43;;;;;;;6.70;6.10;;;19.10;41.50;;;;;;4977984;28;20231;-64
2022/12/02 06:08:29;;;;;;;7.70;7.07;;;19.10;41.40;;;;;;4982332;28;20458;-64
2022/12/02 06:11:27;;;;;;;6.40;5.80;;;19.10;41.50;;;;;;4972281;28;20472;-64
2022/12/02 06:13:54;;;;;;;6.50;6.00;;;19.10;41.40;;;;;;4980666;28;20443;-64
2022/12/02 06:16:28;;;;;;;7.03;6.40;;;19.10;41.50;;;;;;4977349;28;20962;-63
2022/12/02 06:18:53;;;;;;;6.50;5.90;;;19.10;41.40;;;;;;4974555;28;20554;-64
2022/12/02 06:21:21;;;;;;;6.43;5.80;;;19.10;41.50;;;;;;4947646;28;20446;-64
2022/12/02 06:23:49;;;;;;;6.33;5.83;;;19.10;41.50;;;;;;4974374;28;20224;-63
2022/12/02 06:26:17;;;;;;;6.70;6.10;;;19.10;41.50;;;;;;4977570;28;20425;-66
2022/12/02 06:28:46;;;;;;;6.37;5.87;;;19.10;41.50;;;;;;4978467;28;20509;-66
2022/12/02 06:31:44;;;;;;;8.53;6.50;;;19.20;41.60;;;;;;4976832;28;20438;-65
2022/12/02 06:34:31;;;;;;;7.13;6.43;;;19.20;41.60;;;;;;4965255;28;20440;-65
2022/12/02 06:36:58;;;;;;;8.10;7.30;;;19.20;41.50;;;;;;4972044;28;20474;-65
2022/12/02 06:39:23;;;;;;;6.30;5.70;;;19.20;41.50;;;;;;4985392;28;20472;-65
2022/12/02 06:41:50;;;;;;;6.57;6.00;;;19.10;41.50;;;;;;4976702;28;20550;-65
2022/12/02 06:47:32;;;;;;;9.17;7.33;;;19.10;41.40;;;;;;4984581;28;20896;-66
2022/12/02 06:50:03;;;;;;;7.30;6.70;;;19.20;41.50;;;;;;4980104;28;20989;-66
2022/12/02 06:52:33;;;;;;;6.80;6.10;;;19.10;41.50;;;;;;4983269;28;20491;-66
2022/12/02 06:54:59;;;;;;;6.87;6.20;;;19.10;41.40;;;;;;4981515;28;20440;-65
2022/12/02 06:57:25;;;;;;;9.60;5.37;;;19.20;41.50;;;;;;4980782;28;20961;-65
2022/12/02 06:59:51;;;;;;;5.87;5.43;;;19.20;41.50;;;;;;4987177;28;21756;-66
2022/12/02 07:02:29;;;;;;;6.10;5.50;;;19.10;41.40;;;;;;4980248;28;20472;-66
2022/12/02 07:04:55;;;;;;;7.23;6.53;;;19.20;41.50;;;;;;4974036;28;20209;-66
2022/12/02 07:07:31;;;;;;;6.40;5.90;;;19.20;41.50;;;;;;4979763;28;20916;-65
2022/12/02 07:10:06;;;;;;;6.50;5.87;;;19.20;41.50;;;;;;4974794;28;20227;-65
2022/12/02 07:12:41;;;;;;;7.00;6.30;;;19.20;41.40;;;;;;4980457;28;20460;-65
2022/12/02 07:15:29;;;;;;;7.20;6.50;;;19.20;41.50;;;;;;4981480;28;20893;-65
2022/12/02 07:18:15;;;;;;;7.50;6.60;;;19.20;41.50;;;;;;4983404;28;20617;-63
2022/12/02 07:20:43;;;;;;;6.27;5.70;;;19.20;41.50;;;;;;4980315;28;20543;-63
2022/12/02 07:23:20;;;;;;;6.93;6.30;;;19.20;41.50;;;;;;4985706;28;20471;-67
2022/12/02 07:25:47;;;;;;;14.23;5.90;;;19.20;41.50;;;;;;4980982;28;20654;-66
2022/12/02 07:28:26;;;;;;;6.20;5.67;;;19.20;41.50;;;;;;4972009;28;20554;-65
2022/12/02 07:30:58;;;;;;;6.53;6.03;;;19.10;41.30;;;;;;4979517;28;21480;-65
2022/12/02 07:33:24;;;;;;;6.73;6.03;;;19.20;41.50;;;;;;4998096;28;20960;-65
2022/12/02 07:35:50;;;;;;;6.93;6.40;;;19.20;41.40;;;;;;4996009;28;20734;-65
2022/12/02 07:38:15;;;;;;;7.00;6.40;;;19.10;41.40;;;;;;4986105;28;20246;-66
2022/12/02 07:40:42;;;;;;;6.93;5.73;;;19.20;41.50;;;;;;4986581;28;20239;-65
2022/12/02 07:43:08;;;;;;;10.53;6.13;;;19.20;41.40;;;;;;4999933;28;20215;-65
2022/12/02 07:45:33;;;;;;;9.57;6.60;;;19.20;41.40;;;;;;5000803;28;20442;-65
2022/12/02 07:47:59;;;;;;;7.10;6.37;;;19.10;41.40;;;;;;4987172;28;20435;-66
2022/12/02 07:50:25;;;;;;;7.90;7.10;;;19.20;41.40;;;;;;4984056;28;20232;-65
2022/12/02 07:52:51;;;;;;;8.20;5.70;;;19.20;41.50;;;;;;4978932;28;20240;-65
2022/12/02 07:55:16;;;;;;;12.40;5.70;;;19.10;41.30;;;;;;4986582;28;20440;-66
2022/12/02 07:57:42;;;;;;;10.80;5.97;;;19.20;41.50;;;;;;5000464;28;20227;-66
2022/12/02 08:00:08;;;;;;;9.50;6.37;;;19.20;41.50;;;;;;4987637;28;20276;-66
2022/12/02 08:02:34;;;;;;;6.77;6.17;;;19.10;42.20;;;;;;4988359;28;20657;-65
2022/12/02 08:05:00;;;;;;;7.70;5.80;;;19.20;41.50;;;;;;4980351;28;20420;-65
2022/12/02 08:07:25;;;;;;;6.57;5.77;;;19.20;41.50;;;;;;4971890;28;20220;-65
2022/12/02 08:09:51;;;;;;;8.17;5.93;;;19.20;41.50;;;;;;4974189;28;21043;-66
2022/12/02 08:12:16;;;;;;;8.00;5.47;;;19.20;41.50;;;;;;4983118;28;20230;-65
2022/12/02 08:14:42;;;;;;;6.57;5.90;;;19.20;41.50;;;;;;4990224;28;20246;-66
2022/12/02 08:17:07;;;;;;;7.97;5.80;;;19.20;41.50;;;;;;4997103;28;20306;-65
2022/12/02 08:19:33;;;;;;;6.53;6.00;;;19.20;41.60;;;;;;4983207;28;20224;-65
2022/12/02 08:21:58;;;;;;;6.43;5.63;;;19.20;41.60;;;;;;4974658;28;20236;-65
2022/12/02 08:24:24;;;;;;;12.67;6.30;;;19.20;41.60;;;;;;4978809;28;20359;-66
2022/12/02 08:26:49;;;;;;;13.73;9.83;;;19.20;41.40;;;;;;4983746;28;20231;-66
2022/12/02 08:29:15;;;;;;;16.80;10.90;;;19.20;41.10;;;;;;4991750;28;20221;-66
2022/12/02 08:31:40;;;;;;;15.73;10.77;;;19.20;40.90;;;;;;4983138;28;20235;-65
2022/12/02 08:34:06;;;;;;;6.90;6.20;;;19.20;40.70;;;;;;4982978;28;20227;-66
2022/12/02 08:36:33;;;;;;;11.37;7.33;;;19.20;40.70;;;;;;4992655;28;20641;-65
2022/12/02 08:39:01;;;;;;;8.93;6.53;;;19.20;40.80;;;;;;4986477;28;20285;-65
2022/12/02 08:41:27;;;;;;;12.70;7.87;;;19.20;40.90;;;;;;4974776;28;20552;-66
2022/12/02 08:43:52;;;;;;;10.30;6.27;;;19.20;41.00;;;;;;4992604;28;20479;-65
2022/12/02 08:46:18;;;;;;;16.90;7.83;;;19.20;41.10;;;;;;4991508;28;20227;-65
2022/12/02 08:48:43;;;;;;;7.07;6.47;;;19.20;41.10;;;;;;4994599;28;20219;-66
2022/12/02 08:51:09;;;;;;;7.27;6.47;;;19.20;41.20;;;;;;4994769;28;20223;-65
2022/12/02 08:53:34;;;;;;;17.37;12.20;;;19.20;41.20;;;;;;4994824;28;20242;-65
2022/12/02 08:56:00;;;;;;;7.13;6.37;;;19.20;40.90;;;;;;4977846;28;20691;-65
2022/12/02 08:58:25;;;;;;;8.27;7.47;;;19.20;40.90;;;;;;4978531;28;20220;-65
2022/12/02 09:00:51;;;;;;;6.60;6.00;;;19.20;41.70;;;;;;4982476;28;20236;-66
2022/12/02 09:03:16;;;;;;;7.83;7.00;;;19.20;41.00;;;;;;4997377;28;20213;-66
2022/12/02 09:05:42;;;;;;;9.13;7.87;;;19.20;41.10;;;;;;4972464;28;20312;-65
2022/12/02 09:08:13;;;;;;;11.33;7.43;;;19.20;41.10;;;;;;4974371;28;20302;-65
2022/12/02 09:10:40;;;;;;;7.43;6.73;;;19.10;41.10;;;;;;4983177;28;20235;-65
2022/12/02 09:13:05;;;;;;;8.53;7.70;;;19.20;41.20;;;;;;4973625;28;20502;-66
2022/12/02 09:15:31;;;;;;;8.30;7.23;;;19.20;41.20;;;;;;4977314;28;20466;-65
2022/12/02 09:17:56;;;;;;;8.80;7.50;;;19.20;41.20;;;;;;4983686;28;20228;-66
2022/12/02 09:20:22;;;;;;;10.83;7.50;;;19.20;41.20;;;;;;4994813;28;20224;-66
2022/12/02 09:22:47;;;;;;;8.73;7.53;;;19.20;41.20;;;;;;4993713;28;20242;-66
2022/12/02 09:25:14;;;;;;;9.03;7.10;;;19.10;41.10;;;;;;4990683;28;20219;-66
2022/12/02 09:27:41;;;;;;;10.90;8.27;;;19.10;41.20;;;;;;4964827;28;20275;-66
2022/12/02 09:30:07;;;;;;;8.03;7.20;;;19.10;41.20;;;;;;4965569;28;20469;-65
2022/12/02 09:32:33;;;;;;;8.70;7.50;;;19.20;41.20;;;;;;4956843;28;20862;-66
2022/12/02 09:34:58;;;;;;;9.90;7.50;;;19.10;41.20;;;;;;4961439;28;20514;-66
2022/12/02 09:37:24;;;;;;;8.63;7.73;;;19.10;41.20;;;;;;4964636;28;20231;-66
2022/12/02 09:39:49;;;;;;;9.40;8.47;;;19.20;41.20;;;;;;4968109;28;20419;-67
2022/12/02 09:42:16;;;;;;;9.03;6.73;;;19.10;41.20;;;;;;4965498;28;20242;-67
2022/12/02 09:44:43;;;;;;;8.30;7.50;;;19.10;41.20;;;;;;4967440;28;22210;-64
2022/12/02 09:47:10;;;;;;;8.97;8.00;;;19.20;41.30;;;;;;4961124;28;20428;-66
2022/12/02 09:49:36;;;;;;;10.30;8.10;;;19.20;41.20;;;;;;4964615;28;20519;-63
2022/12/02 09:52:04;;;;;;;12.83;8.17;;;19.10;41.20;;;;;;4964783;28;20528;-64
2022/12/02 09:54:30;;;;;;;10.03;8.80;;;19.10;41.30;;;;;;4960368;28;20459;-64
2022/12/02 09:56:57;;;;;;;7.90;7.00;;;19.10;41.30;;;;;;4972033;28;21014;-63
2022/12/02 09:59:23;;;;;;;7.93;7.13;;;19.10;41.20;;;;;;4974546;28;20305;-63
2022/12/02 10:01:49;;;;;;;10.03;7.20;;;19.10;41.30;;;;;;4965245;28;20435;-63
2022/12/02 10:04:18;;;;;;;8.77;7.73;;;19.10;41.30;;;;;;4974536;28;20231;-62
2022/12/02 10:06:43;;;;;;;8.53;7.63;;;19.10;41.30;;;;;;4977862;28;21280;-63
2022/12/02 10:09:29;;;;;;;11.17;8.10;;;19.10;41.20;;;;;;4978282;28;21669;-63
2022/12/02 10:11:55;;;;;;;8.53;7.70;;;19.10;41.20;;;;;;4976654;28;20309;-63
2022/12/02 10:14:21;;;;;;;8.43;6.90;;;19.10;41.20;;;;;;4979227;28;21067;-63
2022/12/02 10:16:46;;;;;;;8.57;7.80;;;19.10;41.30;;;;;;4978315;28;20679;-63
2022/12/02 10:19:16;;;;;;;11.17;8.50;;;19.10;41.20;;;;;;4980175;28;20977;-63
2022/12/02 10:21:42;;;;;;;8.97;7.10;;;19.10;41.20;;;;;;4984261;28;20303;-64
2022/12/02 10:24:10;;;;;;;9.13;8.17;;;19.10;41.20;;;;;;4977862;28;20910;-63
2022/12/02 10:26:51;;;;;;;16.80;11.57;;;19.10;41.10;;;;;;4960841;28;20247;-63
2022/12/02 10:29:28;;;;;;;9.10;7.97;;;19.10;40.90;;;;;;4975282;28;21332;-63
2022/12/02 10:32:00;;;;;;;7.73;6.97;;;19.10;40.90;;;;;;4973575;28;20556;-63
2022/12/02 10:34:27;;;;;;;8.40;7.60;;;19.10;41.00;;;;;;4979193;28;20553;-63
2022/12/02 10:36:53;;;;;;;8.43;7.63;;;19.10;41.00;;;;;;4983473;28;20440;-62
2022/12/02 10:39:29;;;;;;;7.80;7.10;;;19.10;41.00;;;;;;4984404;28;20435;-62
2022/12/02 10:42:03;;;;;;;8.47;7.30;;;19.10;41.00;;;;;;4982192;28;20468;-63
2022/12/02 10:44:31;;;;;;;8.60;7.50;;;19.10;41.00;;;;;;4961920;28;20953;-62
2022/12/02 10:47:11;;;;;;;9.80;8.10;;;19.10;41.00;;;;;;4964683;28;20466;-64
2022/12/02 10:49:37;;;;;;;10.13;8.50;;;19.10;41.10;;;;;;4969028;28;20427;-62
2022/12/02 10:52:08;;;;;;;7.90;7.07;;;19.10;41.10;;;;;;4972236;28;20799;-63
2022/12/02 10:54:36;;;;;;;9.20;7.50;;;19.10;41.10;;;;;;4963392;28;20230;-62
2022/12/02 10:57:03;;;;;;;9.27;7.70;;;19.10;41.10;;;;;;4969053;28;20580;-63
2022/12/02 10:59:30;;;;;;;8.40;7.57;;;19.10;41.10;;;;;;4975553;28;20760;-63
2022/12/02 11:01:55;;;;;;;9.90;8.40;;;19.10;41.10;;;;;;4969799;28;20481;-63
2022/12/02 11:04:21;;;;;;;10.03;9.07;;;19.10;41.10;;;;;;4977968;28;20432;-62
2022/12/02 11:06:48;;;;;;;9.73;7.80;;;19.10;41.10;;;;;;4961292;28;20258;-64
2022/12/02 11:09:20;;;;;;;11.50;9.07;;;19.10;41.10;;;;;;4960876;28;20220;-62
2022/12/02 11:11:46;;;;;;;8.87;7.57;;;19.10;41.10;;;;;;4972587;28;20466;-62
2022/12/02 11:14:13;;;;;;;9.30;8.30;;;19.10;41.20;;;;;;4979211;28;20972;-63
2022/12/02 11:16:44;;;;;;;8.67;7.87;;;19.10;41.20;;;;;;4977397;28;20436;-62
2022/12/02 11:19:39;;;;;;;9.73;7.90;;;19.10;41.90;;;;;;4980342;28;20519;-63
2022/12/02 11:22:43;;;;;;;10.70;7.73;;;19.10;41.20;;;;;;4965485;28;20432;-62
2022/12/02 11:25:41;;;;;;;9.30;8.30;;;19.10;41.10;;;;;;4960083;28;20476;-62
2022/12/02 11:28:27;;;;;;;8.40;7.57;;;19.00;41.10;;;;;;4958429;28;20472;-63
2022/12/02 11:31:16;;;;;;;10.40;8.13;;;19.10;41.20;;;;;;4958630;28;20477;-63
2022/12/02 11:33:47;;;;;;;8.60;7.37;;;19.00;41.10;;;;;;4976029;28;21042;-65
2022/12/02 11:36:34;;;;;;;10.20;8.10;;;19.10;41.30;;;;;;4979156;28;21805;-62
2022/12/02 11:39:03;;;;;;;8.07;7.27;;;19.10;41.20;;;;;;4972606;28;20461;-62
2022/12/02 11:41:45;;;;;;;8.30;7.60;;;19.10;41.20;;;;;;4977858;28;20440;-62
2022/12/02 11:44:24;;;;;;;10.63;8.70;;;19.10;41.20;;;;;;4974141;28;20461;-63
2022/12/02 11:47:03;;;;;;;10.93;8.80;;;19.10;41.20;;;;;;4973839;28;20473;-63
2022/12/02 11:49:36;;;;;;;9.27;8.37;;;19.10;41.20;;;;;;4977615;28;20829;-62
2022/12/02 11:52:02;;;;;;;10.60;8.23;;;19.10;41.20;;;;;;4973905;28;20451;-62
2022/12/02 11:54:28;;;;;;;8.03;7.23;;;19.10;41.20;;;;;;4977492;28;20448;-63
2022/12/02 11:56:54;;;;;;;8.87;7.93;;;19.10;41.30;;;;;;4990566;28;20226;-62
2022/12/02 11:59:23;;;;;;;8.93;7.80;;;19.10;41.20;;;;;;4981588;28;21021;-63
2022/12/02 12:01:49;;;;;;;9.77;8.50;;;19.10;41.20;;;;;;4970930;28;20243;-62
2022/12/02 12:04:28;;;;;;;9.00;8.10;;;19.10;41.20;;;;;;4975979;28;21016;-63
2022/12/02 12:06:56;;;;;;;9.67;8.57;;;19.00;41.10;;;;;;4976149;28;21022;-63
2022/12/02 12:09:22;;;;;;;8.90;8.10;;;19.10;41.20;;;;;;4979215;28;20444;-63
2022/12/02 12:12:04;;;;;;;8.40;7.60;;;19.10;41.20;;;;;;4976151;28;21107;-63
2022/12/02 12:14:30;;;;;;;8.73;7.90;;;19.00;41.10;;;;;;4984608;28;20235;-63
2022/12/02 12:17:15;;;;;;;8.80;8.00;;;19.10;41.30;;;;;;4982477;28;20440;-62
2022/12/02 12:19:41;;;;;;;8.20;7.40;;;19.10;41.30;;;;;;4977045;28;20306;-63
2022/12/02 12:22:28;;;;;;;8.67;7.90;;;19.10;41.30;;;;;;4979171;28;20477;-64
2022/12/02 12:24:53;;;;;;;8.90;8.00;;;19.00;41.10;;;;;;4985342;28;20225;-62
2022/12/02 12:27:36;;;;;;;8.90;8.00;;;19.00;41.10;;;;;;4985394;28;20439;-62
2022/12/02 12:30:05;;;;;;;8.63;7.60;;;19.10;41.20;;;;;;4971035;28;20536;-63
2022/12/02 12:32:31;;;;;;;8.63;7.73;;;19.00;41.20;;;;;;4968570;28;21318;-63
2022/12/02 12:34:56;;;;;;;8.23;7.53;;;19.00;41.20;;;;;;4980320;28;20630;-63
2022/12/02 12:37:22;;;;;;;9.60;8.47;;;19.10;41.30;;;;;;4969747;28;20457;-63
2022/12/02 12:39:48;;;;;;;8.53;7.73;;;19.00;41.10;;;;;;4953016;28;20308;-62
2022/12/02 12:42:14;;;;;;;8.00;7.30;;;19.00;41.20;;;;;;4957076;28;20232;-63
2022/12/02 12:44:39;;;;;;;8.67;7.87;;;19.00;41.10;;;;;;4970498;28;20707;-63
2022/12/02 12:47:05;;;;;;;8.83;7.83;;;19.10;41.20;;;;;;4959914;28;20219;-62
2022/12/02 12:49:32;;;;;;;11.07;8.53;;;19.10;41.30;;;;;;4974999;28;20322;-63
2022/12/02 12:51:58;;;;;;;8.93;8.00;;;19.10;41.30;;;;;;4978980;28;20481;-61
2022/12/02 12:54:24;;;;;;;8.27;7.47;;;19.00;41.10;;;;;;4975014;28;21421;-63
2022/12/02 12:56:49;;;;;;;9.33;8.30;;;19.00;41.10;;;;;;4976491;28;20297;-62
2022/12/02 12:59:15;;;;;;;9.33;8.47;;;19.10;41.20;;;;;;4974318;28;20231;-62